Aérodrome :
LOGIN :

S'inscrire | Disclaimer

   EN    FR    IT 

 










Légende :    VFR   VFR Marginal   IFR   IFR Intensif   IFR Très Intensif
Visi : 
Plafond : 
>= 8 km
>= 3000ft
5 à 8 km
1000 à 3000 ft
1500m à 5 km
500 à 1000 ft
800 à 1500m
200 à 500 ft
< 800m
< 200 ft
Symboles :   Orages  Brouillard  Fortes neiges  Fortes précipitations  Vent > 20 kt
SIGMETs :   Divers  Orages  Givrage  Turbulence  Onde Orograph.  Cendres Volcan.







- Altitude de l'aérodrome : 370 ft


EBBE - Beauvechain AB

DERNIER METAR :
  • 301225Z AUTO 12015KT 9999 FEW170/// 19/01 Q1005 BLU

METARs EXPIRÉS :
  • 301155Z AUTO 14014G24KT 9999 NCD 19/M01 Q1006 BLU
  • 301125Z AUTO 14015G25KT 9999 NCD 18/M01 Q1006 BLU
  • 301055Z AUTO 13014KT 9999 NCD 18/M00 Q1007 BLU
  • 301025Z AUTO 13014KT 9999 NCD 17/M00 Q1007 BLU
  • 300955Z AUTO 12014KT 9999 FEW200/// 17/M00 Q1008 BLU

Prévision TAF périmée.
Pas de NOTAMs connus pour ce terrain.



MET'MAP, la Météo Aéronautique d'un coup d'oeil ! - Copyright ORBIFLY Décembre 2007 - Disclaimer

ORBIFLY MET'MAP TEAM :

Programmation & Développement : Alexandra Zaïnal
Conception & Développement : Baudouin d'Aumeries
Co-Programmation & Développement : Marc-Olivier Méhu
Soutien technique & logistique : Manuel Goepfert

Contact : metmap@orbifly.com




SOURCES & CREDITS :

   NOAA